createdAt,value
2023-11-25T00:00:21.594Z,93.57
2023-11-25T00:01:21.620Z,93.57
2023-11-25T00:02:21.744Z,93.35
2023-11-25T00:03:21.564Z,93.35
2023-11-25T00:04:21.638Z,93.04
2023-11-25T00:05:21.529Z,93.15
2023-11-25T00:06:21.857Z,92.90
2023-11-25T00:07:21.580Z,93.00
2023-11-25T00:08:21.687Z,92.79
2023-11-25T00:09:21.552Z,92.83
2023-11-25T00:10:21.529Z,92.73
2023-11-25T00:11:28.263Z,92.94
2023-11-25T00:12:21.521Z,93.04
2023-11-25T00:13:21.633Z,93.04
2023-11-25T00:14:21.541Z,93.15
2023-11-25T00:15:21.489Z,93.04
2023-11-25T00:16:21.545Z,93.15
2023-11-25T00:17:21.507Z,93.31
2023-11-25T00:18:21.541Z,93.41
2023-11-25T00:19:21.495Z,93.52
2023-11-25T00:20:21.462Z,93.52
2023-11-25T00:21:21.447Z,93.52
2023-11-25T00:22:21.459Z,93.63
2023-11-25T00:24:17.420Z,94.04
2023-11-25T00:25:18.580Z,94.04
2023-11-25T00:26:18.390Z,94.25
2023-11-25T00:27:18.447Z,94.25
2023-11-25T00:28:18.441Z,94.46
2023-11-25T00:29:18.382Z,94.15
2023-11-25T00:30:18.366Z,94.46
2023-11-25T00:31:18.357Z,94.46
2023-11-25T00:32:18.441Z,94.42
2023-11-25T00:33:18.449Z,94.52
2023-11-25T00:34:18.470Z,94.31
2023-11-25T00:35:18.326Z,94.10
2023-11-25T00:36:18.351Z,94.00
2023-11-25T00:37:18.400Z,94.10
2023-11-25T00:38:18.268Z,94.00
2023-11-25T00:39:18.256Z,94.10
2023-11-25T00:40:18.562Z,94.00
2023-11-25T00:41:18.239Z,93.79
2023-11-25T00:42:18.257Z,93.48
2023-11-25T00:43:18.272Z,93.48
2023-11-25T00:44:18.227Z,93.16
2023-11-25T00:45:18.236Z,93.06
2023-11-25T00:46:18.259Z,93.06
2023-11-25T00:47:18.260Z,93.16
2023-11-25T00:48:18.264Z,93.06
2023-11-25T00:49:18.256Z,93.16
2023-11-25T00:50:18.157Z,93.06
2023-11-25T00:51:18.203Z,93.06
2023-11-25T00:52:18.152Z,93.16
2023-11-25T00:53:18.130Z,93.06
2023-11-25T00:54:18.121Z,92.65
2023-11-25T00:55:18.142Z,92.54
2023-11-25T00:56:18.119Z,92.54
2023-11-25T00:57:18.218Z,92.44
2023-11-25T00:58:18.132Z,92.33
2023-11-25T00:59:18.067Z,92.65
2023-11-25T01:00:18.207Z,92.44
2023-11-25T01:01:18.064Z,92.54
2023-11-25T01:02:18.168Z,92.33
2023-11-25T01:03:18.137Z,92.54
2023-11-25T01:04:18.063Z,92.44
2023-11-25T01:05:18.011Z,92.44
2023-11-25T01:06:18.011Z,92.44
2023-11-25T01:07:18.000Z,92.54
2023-11-25T01:08:17.988Z,92.75
2023-11-25T01:09:17.982Z,92.75
2023-11-25T01:10:18.083Z,92.54
2023-11-25T01:11:17.988Z,92.65
2023-11-25T01:12:17.974Z,92.65
2023-11-25T01:13:17.939Z,92.44
2023-11-25T01:14:17.976Z,92.44
2023-11-25T01:15:17.908Z,92.54
2023-11-25T01:16:18.021Z,92.54
2023-11-25T01:17:17.912Z,92.65
2023-11-25T01:18:17.910Z,92.65
2023-11-25T01:19:17.880Z,92.54
2023-11-25T01:20:17.873Z,92.65
2023-11-25T01:21:17.865Z,92.65
2023-11-25T01:22:17.968Z,92.96
2023-11-25T01:23:17.870Z,92.44
2023-11-25T01:24:17.810Z,92.65
2023-11-25T01:25:18.150Z,92.75
2023-11-25T01:26:17.800Z,92.33
2023-11-25T01:27:17.867Z,92.22
2023-11-25T01:28:17.820Z,92.02
2023-11-25T01:29:17.885Z,92.02
2023-11-25T01:30:17.751Z,92.12
2023-11-25T01:31:17.799Z,92.22
2023-11-25T01:32:17.726Z,92.44
2023-11-25T01:33:17.726Z,92.12
2023-11-25T01:34:17.849Z,91.91
2023-11-25T01:35:17.769Z,91.91
2023-11-25T01:36:17.757Z,91.71
2023-11-25T01:37:17.830Z,91.71
2023-11-25T01:38:17.680Z,91.71
2023-11-25T01:39:17.665Z,91.50
2023-11-25T01:40:17.770Z,91.50
2023-11-25T01:41:17.640Z,91.18
2023-11-25T01:42:17.689Z,91.29
2023-11-25T01:43:17.644Z,91.08
2023-11-25T01:44:17.684Z,91.08
2023-11-25T01:45:17.622Z,91.18
2023-11-25T01:46:17.682Z,91.08
2023-11-25T01:47:17.608Z,91.08
2023-11-25T01:48:17.613Z,91.08
2023-11-25T01:49:17.597Z,91.18
2023-11-25T01:50:17.586Z,91.29
2023-11-25T01:51:17.568Z,91.18
2023-11-25T01:52:17.551Z,91.08
2023-11-25T01:53:17.551Z,90.83
2023-11-25T01:54:17.528Z,91.04
2023-11-25T01:55:17.541Z,91.14
2023-11-25T01:56:17.543Z,91.14
2023-11-25T01:57:17.508Z,91.08
2023-11-25T01:58:17.547Z,91.08
2023-11-25T01:59:17.539Z,91.08
2023-11-25T02:00:17.466Z,91.18
2023-11-25T02:01:17.548Z,91.08
2023-11-25T02:02:17.512Z,90.97
2023-11-25T02:03:17.636Z,90.87
2023-11-25T02:04:17.516Z,90.87
2023-11-25T02:05:17.442Z,90.66
2023-11-25T02:06:17.397Z,90.97
2023-11-25T02:07:17.470Z,90.77
2023-11-25T02:08:17.392Z,90.66
2023-11-25T02:09:17.423Z,90.66
2023-11-25T02:10:17.388Z,90.56
2023-11-25T02:11:17.444Z,90.35
2023-11-25T02:12:17.347Z,90.35
2023-11-25T02:13:17.386Z,90.45
2023-11-25T02:14:17.352Z,90.25
2023-11-25T02:15:17.311Z,90.14
2023-11-25T02:16:17.415Z,90.45
2023-11-25T02:17:17.336Z,90.14
2023-11-25T02:18:17.285Z,90.28
2023-11-25T02:19:17.352Z,90.39
2023-11-25T02:20:17.289Z,90.39
2023-11-25T02:21:17.284Z,90.60
2023-11-25T02:22:17.464Z,90.70
2023-11-25T02:23:17.264Z,90.81
2023-11-25T02:24:17.332Z,90.81
2023-11-25T02:25:17.282Z,90.60
2023-11-25T02:26:17.196Z,90.70
2023-11-25T02:27:17.188Z,90.50
2023-11-25T02:28:17.329Z,90.60
2023-11-25T02:29:17.212Z,90.28
2023-11-25T02:30:17.160Z,90.18
2023-11-25T02:31:17.221Z,90.18
2023-11-25T02:32:17.202Z,90.28
2023-11-25T02:33:17.135Z,90.50
2023-11-25T02:34:17.169Z,90.60
2023-11-25T02:35:17.152Z,90.50
2023-11-25T02:36:17.108Z,89.87
2023-11-25T02:37:17.167Z,89.97
2023-11-25T02:38:17.100Z,89.87
2023-11-25T02:39:17.107Z,89.97
2023-11-25T02:40:17.162Z,90.08
2023-11-25T02:41:17.039Z,90.08
2023-11-25T02:42:17.083Z,89.97
2023-11-25T02:43:17.202Z,89.66
2023-11-25T02:44:17.082Z,89.45
2023-11-25T02:45:17.029Z,89.45
2023-11-25T02:46:17.085Z,89.45
2023-11-25T02:47:17.047Z,89.03
2023-11-25T02:48:17.397Z,88.82
2023-11-25T02:49:17.022Z,88.82
2023-11-25T02:50:16.979Z,88.87
2023-11-25T02:51:16.958Z,89.07
2023-11-25T02:52:16.963Z,89.07
2023-11-25T02:53:16.945Z,89.07
2023-11-25T02:54:16.919Z,88.97
2023-11-25T02:55:16.969Z,89.07
2023-11-25T02:56:16.931Z,89.07
2023-11-25T02:57:16.891Z,89.18
2023-11-25T02:58:16.997Z,89.01
2023-11-25T02:59:16.874Z,89.11
2023-11-25T03:00:16.889Z,89.32
2023-11-25T03:01:16.922Z,89.53
2023-11-25T03:02:16.927Z,89.43
2023-11-25T03:03:16.841Z,89.43
2023-11-25T03:04:16.910Z,89.53
2023-11-25T03:05:16.823Z,89.64
2023-11-25T03:06:16.912Z,89.64
2023-11-25T03:07:16.940Z,89.58
2023-11-25T03:08:16.778Z,89.58
2023-11-25T03:09:16.768Z,89.36
2023-11-25T03:10:16.803Z,89.58
2023-11-25T03:11:16.798Z,89.68
2023-11-25T03:12:16.767Z,89.58
2023-11-25T03:13:16.747Z,89.58
2023-11-25T03:14:16.946Z,89.58
2023-11-25T03:15:16.725Z,89.78
2023-11-25T03:16:16.740Z,89.78
2023-11-25T03:17:16.814Z,89.99
2023-11-25T03:18:16.763Z,89.89
2023-11-25T03:19:16.684Z,89.89
2023-11-25T03:20:16.689Z,90.03
2023-11-25T03:21:16.675Z,89.93
2023-11-25T03:22:16.713Z,89.93
2023-11-25T03:23:16.862Z,90.14
2023-11-25T03:24:16.634Z,90.24
2023-11-25T03:25:16.682Z,90.34
2023-11-25T03:26:16.606Z,90.34
2023-11-25T03:27:16.621Z,90.56
2023-11-25T03:28:16.640Z,90.66
2023-11-25T03:29:16.587Z,90.66
2023-11-25T03:30:16.592Z,90.77
2023-11-25T03:31:16.576Z,90.91
2023-11-25T03:32:16.734Z,91.02
2023-11-25T03:33:16.568Z,91.02
2023-11-25T03:34:16.586Z,91.02
2023-11-25T03:35:16.551Z,90.91
2023-11-25T03:36:16.518Z,91.12
2023-11-25T03:37:16.545Z,91.02
2023-11-25T03:38:16.502Z,91.22
2023-11-25T03:39:16.517Z,91.12
2023-11-25T03:40:16.537Z,91.02
2023-11-25T03:41:16.482Z,91.02
2023-11-25T03:42:16.476Z,91.02
2023-11-25T03:43:16.459Z,91.12
2023-11-25T03:44:16.437Z,91.02
2023-11-25T03:45:16.441Z,91.02
2023-11-25T03:46:16.477Z,91.12
2023-11-25T03:47:16.458Z,91.12
2023-11-25T03:48:16.403Z,91.02
2023-11-25T03:49:16.411Z,91.02
2023-11-25T03:50:16.383Z,91.02
2023-11-25T03:51:16.355Z,91.12
2023-11-25T03:52:16.399Z,91.22
2023-11-25T03:53:16.332Z,91.22
2023-11-25T03:54:16.351Z,91.12
2023-11-25T03:55:16.438Z,91.12
2023-11-25T03:56:16.296Z,91.12
2023-11-25T03:57:16.287Z,91.12
2023-11-25T03:58:16.317Z,91.22
2023-11-25T03:59:16.284Z,91.22
2023-11-25T04:00:16.582Z,91.43
2023-11-25T04:01:16.329Z,91.33
2023-11-25T04:02:16.345Z,91.33
2023-11-25T04:03:16.250Z,91.37
2023-11-25T04:04:16.331Z,91.47
2023-11-25T04:05:16.210Z,91.37
2023-11-25T04:06:16.320Z,91.47
2023-11-25T04:07:16.210Z,91.37
2023-11-25T04:08:16.180Z,91.37
2023-11-25T04:09:16.180Z,91.37
2023-11-25T04:10:16.235Z,91.37
2023-11-25T04:11:16.167Z,91.27
2023-11-25T04:12:16.178Z,91.16
2023-11-25T04:13:16.179Z,91.16
2023-11-25T04:14:16.135Z,91.27
2023-11-25T04:15:16.134Z,91.06
2023-11-25T04:16:16.148Z,90.95
2023-11-25T04:17:16.237Z,91.06
2023-11-25T04:18:16.113Z,91.06
2023-11-25T04:19:16.099Z,91.06
2023-11-25T04:20:16.069Z,90.95
2023-11-25T04:21:16.089Z,90.84
2023-11-25T04:22:16.129Z,90.84
2023-11-25T04:23:16.037Z,90.95
2023-11-25T04:24:16.033Z,90.84
2023-11-25T04:25:16.103Z,90.84
2023-11-25T04:26:16.025Z,90.74
2023-11-25T04:27:15.990Z,90.74
2023-11-25T04:28:16.050Z,90.74
2023-11-25T04:29:15.972Z,90.74
2023-11-25T04:30:15.955Z,90.84
2023-11-25T04:31:15.989Z,91.06
2023-11-25T04:32:16.146Z,91.06
2023-11-25T04:33:16.172Z,90.95
2023-11-25T04:34:15.943Z,91.06
2023-11-25T04:35:15.957Z,91.16
2023-11-25T04:36:19.334Z,91.16
2023-11-25T04:37:15.918Z,91.27
2023-11-25T04:38:15.884Z,91.37
2023-11-25T04:39:15.914Z,91.37
2023-11-25T04:40:16.159Z,91.37
2023-11-25T04:41:15.868Z,91.27
2023-11-25T04:42:15.843Z,91.47
2023-11-25T04:43:15.891Z,91.47
2023-11-25T04:44:15.821Z,91.47
2023-11-25T04:45:15.828Z,91.52
2023-11-25T04:46:15.863Z,91.72
2023-11-25T04:47:15.840Z,91.83
2023-11-25T04:48:15.822Z,91.83
2023-11-25T04:49:15.781Z,91.83
2023-11-25T04:50:15.764Z,91.94
2023-11-25T04:51:15.799Z,91.94
2023-11-25T04:52:15.790Z,91.94
2023-11-25T04:53:15.732Z,92.04
2023-11-25T04:54:15.726Z,92.14
2023-11-25T04:55:16.234Z,92.14
2023-11-25T04:56:17.150Z,92.04
2023-11-25T04:57:15.729Z,92.04
2023-11-25T04:58:15.737Z,92.04
2023-11-25T04:59:15.679Z,92.04
2023-11-25T05:00:15.669Z,92.04
2023-11-25T05:01:15.750Z,91.94
2023-11-25T05:02:15.713Z,92.04
2023-11-25T05:03:15.717Z,92.04
2023-11-25T05:04:15.644Z,92.04
2023-11-25T05:05:15.624Z,92.14
2023-11-25T05:06:15.619Z,92.14
2023-11-25T05:07:15.642Z,92.14
2023-11-25T05:08:15.587Z,92.25
2023-11-25T05:09:15.623Z,92.35
2023-11-25T05:10:15.620Z,92.25
2023-11-25T05:11:15.568Z,92.25
2023-11-25T05:12:15.568Z,92.14
2023-11-25T05:13:17.061Z,92.14
2023-11-25T05:14:15.522Z,92.04
2023-11-25T05:15:15.551Z,91.94
2023-11-25T05:16:15.560Z,91.83
2023-11-25T05:17:15.610Z,91.52
2023-11-25T05:18:15.510Z,91.41
2023-11-25T05:19:15.535Z,91.31
2023-11-25T05:20:15.475Z,91.20
2023-11-25T05:21:15.484Z,91.20
2023-11-25T05:22:15.483Z,91.20
2023-11-25T05:23:15.430Z,90.89
2023-11-25T05:24:15.421Z,90.74
2023-11-25T05:25:15.551Z,90.74
2023-11-25T05:26:15.434Z,90.64
2023-11-25T05:27:15.432Z,90.74
2023-11-25T05:28:15.444Z,90.43
2023-11-25T05:29:15.379Z,90.33
2023-11-25T05:30:15.655Z,90.43
2023-11-25T05:31:15.419Z,90.33
2023-11-25T05:32:15.461Z,90.43
2023-11-25T05:33:15.362Z,90.33
2023-11-25T05:34:15.358Z,90.39
2023-11-25T05:35:15.714Z,90.18
2023-11-25T05:36:15.312Z,90.39
2023-11-25T05:37:15.350Z,90.59
2023-11-25T05:38:15.287Z,90.49
2023-11-25T05:39:15.310Z,90.49
2023-11-25T05:40:16.417Z,90.49
2023-11-25T05:41:15.288Z,90.49
2023-11-25T05:42:15.275Z,90.18
2023-11-25T05:43:15.265Z,90.08
2023-11-25T05:44:15.257Z,89.86
2023-11-25T05:45:15.503Z,89.86
2023-11-25T05:46:15.316Z,90.08
2023-11-25T05:47:15.239Z,90.08
2023-11-25T05:48:15.228Z,89.86
2023-11-25T05:49:15.214Z,90.08
2023-11-25T05:50:15.177Z,89.97
2023-11-25T05:51:15.170Z,89.97
2023-11-25T05:52:15.180Z,90.18
2023-11-25T05:53:15.214Z,90.28
2023-11-25T05:54:15.140Z,90.28
2023-11-25T05:55:15.176Z,90.28
2023-11-25T05:56:15.126Z,90.28
2023-11-25T05:57:15.143Z,90.18
2023-11-25T05:58:15.115Z,90.39
2023-11-25T05:59:15.137Z,90.39
2023-11-25T06:00:15.108Z,90.39
2023-11-25T06:01:15.114Z,90.18
2023-11-25T06:02:15.106Z,90.39
2023-11-25T06:03:15.117Z,90.18
2023-11-25T06:04:16.891Z,90.18
2023-11-25T06:05:15.192Z,90.18
2023-11-25T06:06:15.017Z,89.97
2023-11-25T06:07:15.029Z,89.65
2023-11-25T06:08:15.016Z,89.86
2023-11-25T06:09:15.016Z,89.97
2023-11-25T06:10:15.052Z,89.97
2023-11-25T06:11:14.966Z,90.18
2023-11-25T06:12:14.953Z,90.39
2023-11-25T06:13:14.998Z,90.18
2023-11-25T06:14:14.959Z,90.08
2023-11-25T06:15:15.015Z,90.18
2023-11-25T06:16:14.962Z,90.28
2023-11-25T06:17:14.902Z,90.08
2023-11-25T06:18:15.017Z,90.28
2023-11-25T06:19:15.014Z,90.18
2023-11-25T06:20:14.890Z,90.08
2023-11-25T06:21:14.912Z,89.97
2023-11-25T06:22:14.869Z,89.86
2023-11-25T06:23:14.850Z,89.76
2023-11-25T06:24:14.853Z,89.65
2023-11-25T06:25:14.928Z,89.76
2023-11-25T06:26:14.830Z,89.34
2023-11-25T06:27:14.830Z,89.34
2023-11-25T06:28:14.809Z,89.55
2023-11-25T06:29:14.782Z,89.45
2023-11-25T06:30:14.774Z,89.30
2023-11-25T06:31:14.834Z,89.30
2023-11-25T06:32:14.763Z,89.20
2023-11-25T06:33:14.773Z,89.09
2023-11-25T06:34:14.939Z,89.09
2023-11-25T06:35:14.726Z,89.09
2023-11-25T06:36:14.741Z,89.20
2023-11-25T06:37:14.797Z,89.09
2023-11-25T06:38:14.784Z,88.88
2023-11-25T06:39:14.739Z,88.99
2023-11-25T06:40:14.840Z,89.09
2023-11-25T06:41:14.676Z,89.20
2023-11-25T06:42:14.655Z,89.09
2023-11-25T06:43:14.719Z,89.40
2023-11-25T06:44:14.645Z,89.20
2023-11-25T06:45:14.638Z,88.88
2023-11-25T06:46:14.653Z,88.78
2023-11-25T06:47:14.679Z,88.99
2023-11-25T06:48:14.623Z,88.88
2023-11-25T06:49:14.644Z,88.88
2023-11-25T06:50:14.581Z,88.99
2023-11-25T06:51:14.624Z,88.88
2023-11-25T06:52:14.554Z,88.88
2023-11-25T06:53:14.560Z,88.88
2023-11-25T06:54:14.548Z,88.36
2023-11-25T06:55:14.542Z,88.46
2023-11-25T06:56:14.540Z,88.46
2023-11-25T06:57:14.585Z,88.46
2023-11-25T06:58:14.517Z,88.46
2023-11-25T06:59:14.498Z,88.36
2023-11-25T07:00:14.504Z,88.36
2023-11-25T07:01:14.623Z,88.53
2023-11-25T07:02:14.559Z,88.42
2023-11-25T07:03:14.506Z,88.42
2023-11-25T07:04:14.497Z,88.42
2023-11-25T07:05:14.421Z,88.32
2023-11-25T07:06:14.405Z,88.11
2023-11-25T07:07:14.419Z,88.21
2023-11-25T07:08:14.397Z,88.21
2023-11-25T07:09:14.416Z,88.11
2023-11-25T07:10:14.404Z,88.01
2023-11-25T07:11:14.473Z,88.21
2023-11-25T07:12:14.369Z,88.32
2023-11-25T07:13:14.394Z,88.01
2023-11-25T07:14:14.353Z,88.01
2023-11-25T07:15:14.377Z,88.01
2023-11-25T07:16:14.402Z,87.59
2023-11-25T07:17:14.358Z,87.80
2023-11-25T07:18:14.355Z,87.38
2023-11-25T07:19:14.388Z,87.45
2023-11-25T07:20:14.288Z,87.65
2023-11-25T07:21:14.319Z,87.45
2023-11-25T07:22:14.438Z,87.55
2023-11-25T07:23:14.240Z,87.45
2023-11-25T07:24:14.253Z,87.55
2023-11-25T07:25:14.401Z,87.23
2023-11-25T07:26:14.247Z,87.34
2023-11-25T07:27:14.235Z,87.02
2023-11-25T07:28:14.228Z,87.23
2023-11-25T07:29:14.210Z,87.13
2023-11-25T07:30:14.169Z,87.34
2023-11-25T07:31:14.276Z,87.55
2023-11-25T07:32:14.154Z,87.76
2023-11-25T07:33:14.190Z,87.65
2023-11-25T07:34:14.220Z,87.86
2023-11-25T07:35:14.175Z,87.96
2023-11-25T07:36:14.124Z,87.96
2023-11-25T07:37:14.129Z,87.96
2023-11-25T07:38:14.166Z,88.39
2023-11-25T07:39:14.117Z,88.17
2023-11-25T07:40:14.087Z,88.17
2023-11-25T07:41:14.085Z,87.86
2023-11-25T07:42:14.079Z,87.86
2023-11-25T07:43:14.052Z,87.76
2023-11-25T07:44:14.036Z,87.76
2023-11-25T07:45:14.126Z,87.96
2023-11-25T07:46:14.036Z,87.65
2023-11-25T07:47:14.082Z,87.65
2023-11-25T07:48:14.027Z,87.76
2023-11-25T07:49:14.019Z,87.76
2023-11-25T07:50:13.990Z,87.40
2023-11-25T07:51:14.074Z,87.19
2023-11-25T07:52:13.954Z,86.99
2023-11-25T07:53:14.006Z,86.88
2023-11-25T07:54:13.985Z,86.88
2023-11-25T07:55:13.948Z,86.36
2023-11-25T07:56:13.922Z,86.25
2023-11-25T07:57:13.929Z,86.77
2023-11-25T07:58:13.918Z,86.67
2023-11-25T07:59:13.900Z,86.57
2023-11-25T08:00:13.877Z,86.88
2023-11-25T08:01:13.885Z,86.77
2023-11-25T08:02:14.001Z,86.57
2023-11-25T08:03:13.991Z,86.46
2023-11-25T08:04:13.971Z,85.94
2023-11-25T08:05:13.830Z,85.83
2023-11-25T08:06:13.808Z,85.73
2023-11-25T08:07:13.823Z,86.05
2023-11-25T08:08:13.811Z,86.25
2023-11-25T08:09:13.848Z,86.46
2023-11-25T08:10:13.784Z,86.57
2023-11-25T08:11:13.770Z,86.43
2023-11-25T08:12:13.924Z,86.00
2023-11-25T08:13:13.765Z,85.80
2023-11-25T08:14:13.827Z,85.80
2023-11-25T08:15:13.760Z,85.90
2023-11-25T08:16:13.792Z,86.11
2023-11-25T08:17:13.776Z,86.21
2023-11-25T08:18:13.738Z,85.97
2023-11-25T08:19:13.812Z,85.97
2023-11-25T08:20:13.688Z,85.97
2023-11-25T08:21:13.818Z,85.34
2023-11-25T08:22:13.688Z,85.34
2023-11-25T08:23:13.670Z,84.99
2023-11-25T08:24:13.657Z,85.61
2023-11-25T08:25:13.642Z,84.78
2023-11-25T08:26:13.636Z,85.10
2023-11-25T08:27:13.654Z,84.57
2023-11-25T08:28:13.609Z,84.78
2023-11-25T08:29:13.630Z,84.99
2023-11-25T08:30:13.636Z,85.16
2023-11-25T08:31:13.661Z,85.16
2023-11-25T08:32:13.691Z,84.74
2023-11-25T08:33:13.627Z,85.16
2023-11-25T08:34:13.747Z,85.36
2023-11-25T08:35:13.594Z,85.47
2023-11-25T08:36:13.524Z,85.36
2023-11-25T08:37:13.576Z,85.16
2023-11-25T08:38:13.544Z,85.68
2023-11-25T08:39:13.516Z,85.47
2023-11-25T08:40:13.490Z,85.47
2023-11-25T08:41:13.502Z,85.68
2023-11-25T08:42:13.460Z,85.78
2023-11-25T08:43:13.469Z,85.99
2023-11-25T08:44:13.450Z,86.10
2023-11-25T08:45:13.549Z,86.10
2023-11-25T08:46:13.441Z,86.30
2023-11-25T08:47:13.444Z,86.10
2023-11-25T08:48:13.493Z,86.10
2023-11-25T08:49:13.378Z,86.41
2023-11-25T08:50:13.387Z,86.61
2023-11-25T08:51:13.403Z,86.41
2023-11-25T08:52:13.409Z,86.61
2023-11-25T08:53:13.346Z,86.72
2023-11-25T08:54:13.355Z,86.41
2023-11-25T08:55:13.365Z,86.30
2023-11-25T08:56:13.339Z,86.41
2023-11-25T08:57:13.433Z,86.61
2023-11-25T08:58:13.346Z,86.83
2023-11-25T08:59:13.345Z,86.61
2023-11-25T09:00:13.281Z,86.58
2023-11-25T09:01:13.311Z,86.79
2023-11-25T09:02:13.436Z,87.41
2023-11-25T09:03:13.366Z,87.52
2023-11-25T09:04:13.333Z,87.10
2023-11-25T09:05:13.304Z,86.99
2023-11-25T09:06:13.246Z,87.41
2023-11-25T09:07:13.217Z,87.41
2023-11-25T09:08:13.225Z,87.20
2023-11-25T09:09:13.285Z,87.20
2023-11-25T09:10:13.244Z,86.79
2023-11-25T09:11:13.188Z,86.79
2023-11-25T09:12:13.428Z,86.89
2023-11-25T09:13:13.172Z,86.79
2023-11-25T09:14:13.224Z,86.99
2023-11-25T09:15:13.171Z,87.10
2023-11-25T09:16:13.176Z,87.20
2023-11-25T09:17:13.147Z,87.10
2023-11-25T09:18:13.107Z,87.41
2023-11-25T09:19:13.101Z,87.52
2023-11-25T09:20:13.430Z,87.83
2023-11-25T09:21:13.123Z,87.83
2023-11-25T09:22:13.084Z,87.93
2023-11-25T09:23:13.066Z,88.14
2023-11-25T09:24:13.038Z,88.56
2023-11-25T09:25:13.161Z,88.98
2023-11-25T09:26:13.028Z,89.39
2023-11-25T09:27:13.048Z,89.70
2023-11-25T09:28:13.005Z,90.01
2023-11-25T09:29:13.019Z,90.01
2023-11-25T09:30:13.517Z,90.22
2023-11-25T09:31:12.991Z,90.54
2023-11-25T09:32:12.973Z,90.22
2023-11-25T09:33:13.014Z,90.12
2023-11-25T09:34:12.972Z,90.75
2023-11-25T09:35:13.011Z,91.31
2023-11-25T09:36:12.982Z,91.20
2023-11-25T09:37:12.960Z,90.79
2023-11-25T09:38:12.942Z,90.79
2023-11-25T09:39:12.911Z,90.75
2023-11-25T09:40:12.920Z,91.47
2023-11-25T09:41:12.892Z,91.16
2023-11-25T09:42:12.876Z,91.47
2023-11-25T09:43:12.863Z,91.27
2023-11-25T09:44:12.862Z,91.58
2023-11-25T09:45:12.983Z,91.27
2023-11-25T09:46:12.897Z,91.37
2023-11-25T09:47:12.837Z,91.27
2023-11-25T09:48:12.803Z,91.78
2023-11-25T09:49:12.804Z,91.37
2023-11-25T09:50:12.826Z,91.06
2023-11-25T09:51:12.806Z,90.95
2023-11-25T09:52:12.753Z,91.37
2023-11-25T09:53:12.787Z,92.10
2023-11-25T09:54:12.746Z,92.00
2023-11-25T09:55:12.755Z,92.00
2023-11-25T09:56:13.027Z,91.68
2023-11-25T09:57:12.736Z,91.33
2023-11-25T09:58:12.716Z,91.58
2023-11-25T09:59:12.711Z,91.37
2023-11-25T10:00:12.700Z,91.89
2023-11-25T10:01:12.728Z,91.89
2023-11-25T10:02:12.789Z,91.89
2023-11-25T10:03:12.888Z,92.10
2023-11-25T10:04:12.680Z,92.41
2023-11-25T10:05:12.645Z,92.31
2023-11-25T10:06:12.634Z,92.00
2023-11-25T10:07:12.781Z,91.89
2023-11-25T10:08:12.613Z,91.78
2023-11-25T10:09:12.658Z,92.00
2023-11-25T10:10:12.581Z,91.89
2023-11-25T10:11:12.571Z,91.89
2023-11-25T10:12:12.563Z,92.21
2023-11-25T10:13:12.575Z,92.31
2023-11-25T10:14:12.611Z,92.10
2023-11-25T10:15:12.582Z,92.62
2023-11-25T10:16:12.557Z,92.83
2023-11-25T10:17:12.515Z,92.72
2023-11-25T10:18:12.524Z,92.93
2023-11-25T10:19:12.552Z,93.04
2023-11-25T10:20:12.499Z,93.35
2023-11-25T10:21:12.516Z,93.35
2023-11-25T10:22:12.500Z,93.56
2023-11-25T10:23:12.472Z,93.77
2023-11-25T10:24:12.459Z,93.77
2023-11-25T10:25:12.441Z,93.35
2023-11-25T10:26:12.417Z,93.14
2023-11-25T10:27:12.442Z,93.56
2023-11-25T10:28:12.393Z,93.41
2023-11-25T10:29:12.395Z,93.20
2023-11-25T10:30:12.393Z,92.89
2023-11-25T10:31:12.392Z,93.10
2023-11-25T10:32:12.375Z,92.89
2023-11-25T10:33:12.414Z,92.58
2023-11-25T10:34:12.372Z,92.68
2023-11-25T10:35:12.346Z,93.10
2023-11-25T10:36:12.338Z,92.68
2023-11-25T10:37:12.329Z,92.79
2023-11-25T10:38:12.403Z,92.58
2023-11-25T10:39:12.359Z,92.47
2023-11-25T10:40:12.305Z,92.06
2023-11-25T10:41:12.373Z,92.37
2023-11-25T10:42:12.270Z,92.47
2023-11-25T10:43:12.271Z,92.68
2023-11-25T10:44:12.323Z,92.68
2023-11-25T10:45:12.283Z,92.79
2023-11-25T10:46:12.268Z,92.79
2023-11-25T10:47:12.216Z,92.68
2023-11-25T10:48:12.243Z,93.10
2023-11-25T10:49:12.245Z,92.68
2023-11-25T10:50:12.187Z,92.79
2023-11-25T10:51:12.221Z,92.47
2023-11-25T10:52:12.289Z,92.99
2023-11-25T10:53:12.158Z,93.31
2023-11-25T10:54:12.175Z,93.31
2023-11-25T10:55:12.158Z,93.52
2023-11-25T10:56:12.185Z,93.83
2023-11-25T10:57:12.162Z,93.83
2023-11-25T10:58:12.110Z,93.62
2023-11-25T10:59:12.099Z,93.83
2023-11-25T11:00:12.760Z,93.52
2023-11-25T11:01:12.118Z,94.14
2023-11-25T11:02:12.201Z,94.14
2023-11-25T11:03:12.215Z,94.14
2023-11-25T11:04:12.061Z,93.52
2023-11-25T11:05:12.050Z,93.62
2023-11-25T11:06:12.034Z,93.93
2023-11-25T11:07:12.032Z,93.93
2023-11-25T11:08:12.010Z,93.41
2023-11-25T11:09:12.129Z,93.31
2023-11-25T11:10:12.018Z,93.73
2023-11-25T11:11:12.025Z,94.04
2023-11-25T11:12:11.990Z,94.14
2023-11-25T11:13:11.963Z,94.14
2023-11-25T11:14:11.960Z,94.04
2023-11-25T11:15:12.077Z,94.45
2023-11-25T11:16:11.942Z,94.24
2023-11-25T11:17:11.911Z,94.14
2023-11-25T11:18:12.090Z,94.66
2023-11-25T11:19:12.009Z,94.76
2023-11-25T11:20:11.927Z,94.41
2023-11-25T11:21:11.903Z,94.31
2023-11-25T11:22:11.892Z,94.20
2023-11-25T11:23:11.885Z,93.79
2023-11-25T11:24:11.842Z,93.99
2023-11-25T11:25:11.843Z,94.51
2023-11-25T11:26:11.905Z,94.62
2023-11-25T11:27:14.051Z,93.79
2023-11-25T11:28:11.897Z,93.89
2023-11-25T11:29:11.824Z,94.20
2023-11-25T11:30:11.815Z,93.68
2023-11-25T11:31:11.848Z,93.89
2023-11-25T11:32:11.828Z,94.41
2023-11-25T11:33:11.843Z,94.41
2023-11-25T11:34:11.777Z,94.51
2023-11-25T11:35:11.800Z,94.41
2023-11-25T11:36:11.738Z,94.31
2023-11-25T11:37:11.744Z,94.41
2023-11-25T11:38:11.743Z,94.41
2023-11-25T11:39:11.730Z,94.31
2023-11-25T11:40:11.746Z,94.51
2023-11-25T11:41:11.712Z,94.62
2023-11-25T11:42:11.672Z,94.51
2023-11-25T11:43:11.676Z,94.82
2023-11-25T11:44:11.785Z,94.93
2023-11-25T11:45:11.669Z,94.72
2023-11-25T11:46:11.809Z,94.41
2023-11-25T11:47:11.640Z,94.31
2023-11-25T11:48:11.674Z,94.51
2023-11-25T11:49:11.633Z,94.93
2023-11-25T11:50:11.609Z,94.82
2023-11-25T11:51:11.638Z,94.72
2023-11-25T11:52:11.596Z,94.72
2023-11-25T11:53:11.588Z,94.41
2023-11-25T11:54:11.546Z,94.62
2023-11-25T11:55:11.571Z,94.51
2023-11-25T11:56:11.605Z,94.31
2023-11-25T11:57:11.561Z,94.41
2023-11-25T11:58:11.586Z,94.62
2023-11-25T11:59:11.532Z,94.31
2023-11-25T12:00:11.514Z,94.10
2023-11-25T12:01:11.499Z,94.31
2023-11-25T12:02:11.580Z,94.51
2023-11-25T12:03:11.523Z,94.10
2023-11-25T12:04:11.532Z,93.99
2023-11-25T12:05:11.652Z,93.79
2023-11-25T12:06:11.455Z,94.10
2023-11-25T12:07:11.447Z,93.58
2023-11-25T12:08:11.437Z,93.99
2023-11-25T12:09:11.454Z,93.89
2023-11-25T12:10:11.397Z,94.26
2023-11-25T12:11:11.375Z,94.06
2023-11-25T12:12:11.460Z,93.64
2023-11-25T12:13:11.357Z,93.85
2023-11-25T12:14:11.374Z,93.95
2023-11-25T12:15:11.385Z,93.85
2023-11-25T12:16:11.362Z,93.74
2023-11-25T12:17:11.355Z,93.74
2023-11-25T12:18:11.348Z,93.74
2023-11-25T12:19:11.314Z,93.33
2023-11-25T12:20:11.370Z,93.12
2023-11-25T12:21:11.334Z,93.33
2023-11-25T12:22:11.292Z,93.12
2023-11-25T12:23:11.280Z,93.43
2023-11-25T12:24:17.791Z,93.70
2023-11-25T12:25:11.236Z,93.74
2023-11-25T12:26:11.236Z,93.39
2023-11-25T12:27:11.265Z,92.97
2023-11-25T12:28:11.249Z,93.29
2023-11-25T12:29:11.222Z,93.39
2023-11-25T12:30:11.193Z,93.39
2023-11-25T12:31:11.202Z,93.29
2023-11-25T12:32:11.278Z,93.60
2023-11-25T12:33:11.383Z,93.18
2023-11-25T12:34:11.149Z,92.97
2023-11-25T12:35:11.280Z,93.07
2023-11-25T12:36:11.163Z,92.97
2023-11-25T12:37:11.121Z,93.07
2023-11-25T12:38:15.570Z,92.66
2023-11-25T12:39:11.247Z,92.55
2023-11-25T12:40:11.112Z,92.35
2023-11-25T12:41:11.113Z,92.41
2023-11-25T12:42:11.077Z,92.61
2023-11-25T12:43:11.114Z,92.61
2023-11-25T12:44:11.901Z,92.51
2023-11-25T12:45:11.073Z,92.20
2023-11-25T12:46:11.049Z,92.10
2023-11-25T12:47:11.074Z,92.20
2023-11-25T12:48:12.948Z,92.20
2023-11-25T12:49:11.002Z,92.20
2023-11-25T12:50:11.051Z,92.30
2023-11-25T12:51:11.008Z,92.20
2023-11-25T12:52:11.111Z,91.89
2023-11-25T12:53:11.002Z,91.78